sensor_id;sensor_type;location;lat;lon;timestamp;temperature;humidity
6841;DHT22;3458;53.678;14.080;2023-07-30T00:01:40;19.40;99.90
6841;DHT22;3458;53.678;14.080;2023-07-30T00:04:05;19.40;99.90
6841;DHT22;3458;53.678;14.080;2023-07-30T00:06:31;19.40;99.90
6841;DHT22;3458;53.678;14.080;2023-07-30T00:08:56;19.30;99.90
6841;DHT22;3458;53.678;14.080;2023-07-30T00:11:22;19.40;99.90
6841;DHT22;3458;53.678;14.080;2023-07-30T00:13:47;19.30;99.90
6841;DHT22;3458;53.678;14.080;2023-07-30T00:16:13;19.30;99.90
6841;DHT22;3458;53.678;14.080;2023-07-30T00:18:38;19.30;99.90
6841;DHT22;3458;53.678;14.080;2023-07-30T00:21:04;19.30;99.90
6841;DHT22;3458;53.678;14.080;2023-07-30T00:23:29;19.30;99.90
6841;DHT22;3458;53.678;14.080;2023-07-30T00:25:55;19.30;99.90
6841;DHT22;3458;53.678;14.080;2023-07-30T00:28:20;19.20;99.90
6841;DHT22;3458;53.678;14.080;2023-07-30T00:30:46;19.20;99.90
6841;DHT22;3458;53.678;14.080;2023-07-30T00:33:12;19.20;99.90
6841;DHT22;3458;53.678;14.080;2023-07-30T00:35:37;19.20;99.90
6841;DHT22;3458;53.678;14.080;2023-07-30T00:38:03;19.20;99.90
6841;DHT22;3458;53.678;14.080;2023-07-30T00:40:28;19.20;99.90
6841;DHT22;3458;53.678;14.080;2023-07-30T00:42:54;19.10;99.90
6841;DHT22;3458;53.678;14.080;2023-07-30T00:45:19;19.10;99.90
6841;DHT22;3458;53.678;14.080;2023-07-30T00:47:45;19.10;99.90
6841;DHT22;3458;53.678;14.080;2023-07-30T00:50:13;19.00;99.90
6841;DHT22;3458;53.678;14.080;2023-07-30T00:52:39;19.00;99.90
6841;DHT22;3458;53.678;14.080;2023-07-30T00:55:07;19.00;99.90
6841;DHT22;3458;53.678;14.080;2023-07-30T00:57:33;19.00;99.90
6841;DHT22;3458;53.678;14.080;2023-07-30T00:59:59;18.90;99.90
6841;DHT22;3458;53.678;14.080;2023-07-30T01:02:28;18.90;99.90
6841;DHT22;3458;53.678;14.080;2023-07-30T01:04:54;18.90;99.90
6841;DHT22;3458;53.678;14.080;2023-07-30T01:07:20;18.90;99.90
6841;DHT22;3458;53.678;14.080;2023-07-30T01:09:45;18.90;99.90
6841;DHT22;3458;53.678;14.080;2023-07-30T01:12:11;18.90;99.90
6841;DHT22;3458;53.678;14.080;2023-07-30T01:14:36;18.90;99.90
6841;DHT22;3458;53.678;14.080;2023-07-30T01:17:04;18.80;99.90
6841;DHT22;3458;53.678;14.080;2023-07-30T01:19:29;18.80;99.90
6841;DHT22;3458;53.678;14.080;2023-07-30T01:21:55;18.80;99.90
6841;DHT22;3458;53.678;14.080;2023-07-30T01:24:21;18.80;99.90
6841;DHT22;3458;53.678;14.080;2023-07-30T01:26:51;18.80;99.90
6841;DHT22;3458;53.678;14.080;2023-07-30T01:29:32;18.70;99.90
6841;DHT22;3458;53.678;14.080;2023-07-30T01:32:03;18.70;99.90
6841;DHT22;3458;53.678;14.080;2023-07-30T01:34:30;18.70;99.90
6841;DHT22;3458;53.678;14.080;2023-07-30T01:36:58;18.70;99.90
6841;DHT22;3458;53.678;14.080;2023-07-30T01:39:24;18.70;99.90
6841;DHT22;3458;53.678;14.080;2023-07-30T01:41:50;18.70;99.90
6841;DHT22;3458;53.678;14.080;2023-07-30T01:44:15;18.70;99.90
6841;DHT22;3458;53.678;14.080;2023-07-30T01:46:41;18.70;99.90
6841;DHT22;3458;53.678;14.080;2023-07-30T01:49:06;18.60;99.90
6841;DHT22;3458;53.678;14.080;2023-07-30T01:51:32;18.60;99.90
6841;DHT22;3458;53.678;14.080;2023-07-30T01:53:57;18.50;99.90
6841;DHT22;3458;53.678;14.080;2023-07-30T01:56:23;18.40;99.90
6841;DHT22;3458;53.678;14.080;2023-07-30T01:58:48;18.50;99.90
6841;DHT22;3458;53.678;14.080;2023-07-30T02:01:13;18.50;99.90
6841;DHT22;3458;53.678;14.080;2023-07-30T02:03:39;18.50;99.90
6841;DHT22;3458;53.678;14.080;2023-07-30T02:06:04;18.50;99.90
6841;DHT22;3458;53.678;14.080;2023-07-30T02:08:30;18.50;99.90
6841;DHT22;3458;53.678;14.080;2023-07-30T02:10:56;18.50;99.90
6841;DHT22;3458;53.678;14.080;2023-07-30T02:13:23;18.50;99.90
6841;DHT22;3458;53.678;14.080;2023-07-30T02:15:48;18.40;99.90
6841;DHT22;3458;53.678;14.080;2023-07-30T02:18:14;18.30;99.90
6841;DHT22;3458;53.678;14.080;2023-07-30T02:20:39;18.30;99.90
6841;DHT22;3458;53.678;14.080;2023-07-30T02:23:05;18.30;99.90
6841;DHT22;3458;53.678;14.080;2023-07-30T02:25:30;18.20;99.90
6841;DHT22;3458;53.678;14.080;2023-07-30T02:27:57;18.20;99.90
6841;DHT22;3458;53.678;14.080;2023-07-30T02:30:22;18.20;99.90
6841;DHT22;3458;53.678;14.080;2023-07-30T02:32:48;18.20;99.90
6841;DHT22;3458;53.678;14.080;2023-07-30T02:35:13;18.20;99.90
6841;DHT22;3458;53.678;14.080;2023-07-30T02:37:39;18.20;99.90
6841;DHT22;3458;53.678;14.080;2023-07-30T02:40:05;18.20;99.90
6841;DHT22;3458;53.678;14.080;2023-07-30T02:42:31;18.20;99.90
6841;DHT22;3458;53.678;14.080;2023-07-30T02:44:56;18.20;99.90
6841;DHT22;3458;53.678;14.080;2023-07-30T02:47:22;18.20;99.90
6841;DHT22;3458;53.678;14.080;2023-07-30T02:49:47;18.20;99.90
6841;DHT22;3458;53.678;14.080;2023-07-30T02:52:13;18.20;99.90
6841;DHT22;3458;53.678;14.080;2023-07-30T02:54:38;18.10;99.90
6841;DHT22;3458;53.678;14.080;2023-07-30T02:57:04;18.10;99.90
6841;DHT22;3458;53.678;14.080;2023-07-30T02:59:30;18.10;99.90
6841;DHT22;3458;53.678;14.080;2023-07-30T03:01:55;18.10;99.90
6841;DHT22;3458;53.678;14.080;2023-07-30T03:04:21;18.10;99.90
6841;DHT22;3458;53.678;14.080;2023-07-30T03:06:46;18.00;99.90
6841;DHT22;3458;53.678;14.080;2023-07-30T03:09:12;18.00;99.90
6841;DHT22;3458;53.678;14.080;2023-07-30T03:11:37;18.00;99.90
6841;DHT22;3458;53.678;14.080;2023-07-30T03:14:02;18.00;99.90
6841;DHT22;3458;53.678;14.080;2023-07-30T03:16:28;18.00;99.90
6841;DHT22;3458;53.678;14.080;2023-07-30T03:18:53;18.00;99.90
6841;DHT22;3458;53.678;14.080;2023-07-30T03:21:19;17.90;99.90
6841;DHT22;3458;53.678;14.080;2023-07-30T03:23:44;17.90;99.90
6841;DHT22;3458;53.678;14.080;2023-07-30T03:26:11;17.90;99.90
6841;DHT22;3458;53.678;14.080;2023-07-30T03:28:36;18.00;99.90
6841;DHT22;3458;53.678;14.080;2023-07-30T03:31:01;18.00;99.90
6841;DHT22;3458;53.678;14.080;2023-07-30T03:33:27;18.00;99.90
6841;DHT22;3458;53.678;14.080;2023-07-30T03:35:52;18.00;99.90
6841;DHT22;3458;53.678;14.080;2023-07-30T03:38:18;18.00;99.90
6841;DHT22;3458;53.678;14.080;2023-07-30T03:40:43;18.00;99.90
6841;DHT22;3458;53.678;14.080;2023-07-30T03:43:09;18.10;99.90
6841;DHT22;3458;53.678;14.080;2023-07-30T03:45:34;18.10;99.90
6841;DHT22;3458;53.678;14.080;2023-07-30T03:48:00;18.10;99.90
6841;DHT22;3458;53.678;14.080;2023-07-30T03:50:25;18.10;99.90
6841;DHT22;3458;53.678;14.080;2023-07-30T03:52:51;18.10;99.90
6841;DHT22;3458;53.678;14.080;2023-07-30T03:55:16;18.10;99.90
6841;DHT22;3458;53.678;14.080;2023-07-30T03:57:42;18.10;99.90
6841;DHT22;3458;53.678;14.080;2023-07-30T04:00:07;18.10;99.90
6841;DHT22;3458;53.678;14.080;2023-07-30T04:02:33;18.10;99.90
6841;DHT22;3458;53.678;14.080;2023-07-30T04:04:58;18.10;99.90
6841;DHT22;3458;53.678;14.080;2023-07-30T04:07:24;18.10;99.90
6841;DHT22;3458;53.678;14.080;2023-07-30T04:09:49;18.10;99.90
6841;DHT22;3458;53.678;14.080;2023-07-30T04:12:15;18.10;99.90
6841;DHT22;3458;53.678;14.080;2023-07-30T04:14:40;18.00;99.90
6841;DHT22;3458;53.678;14.080;2023-07-30T04:17:06;18.00;99.90
6841;DHT22;3458;53.678;14.080;2023-07-30T04:19:31;18.00;99.90
6841;DHT22;3458;53.678;14.080;2023-07-30T04:21:57;18.00;99.90
6841;DHT22;3458;53.678;14.080;2023-07-30T04:24:22;18.00;99.90
6841;DHT22;3458;53.678;14.080;2023-07-30T04:26:48;17.90;99.90
6841;DHT22;3458;53.678;14.080;2023-07-30T04:29:13;17.90;99.90
6841;DHT22;3458;53.678;14.080;2023-07-30T04:31:39;17.90;99.90
6841;DHT22;3458;53.678;14.080;2023-07-30T04:34:04;17.90;99.90
6841;DHT22;3458;53.678;14.080;2023-07-30T04:36:30;17.90;99.90
6841;DHT22;3458;53.678;14.080;2023-07-30T04:38:55;17.90;99.90
6841;DHT22;3458;53.678;14.080;2023-07-30T04:41:21;18.00;99.90
6841;DHT22;3458;53.678;14.080;2023-07-30T04:43:47;18.00;99.90
6841;DHT22;3458;53.678;14.080;2023-07-30T04:46:12;18.00;99.90
6841;DHT22;3458;53.678;14.080;2023-07-30T04:48:38;18.10;99.90
6841;DHT22;3458;53.678;14.080;2023-07-30T04:51:03;18.10;99.90
6841;DHT22;3458;53.678;14.080;2023-07-30T04:53:29;18.20;99.90
6841;DHT22;3458;53.678;14.080;2023-07-30T04:55:56;18.30;99.90
6841;DHT22;3458;53.678;14.080;2023-07-30T04:58:22;18.30;99.90
6841;DHT22;3458;53.678;14.080;2023-07-30T05:00:48;18.30;99.90
6841;DHT22;3458;53.678;14.080;2023-07-30T05:03:14;18.30;99.90
6841;DHT22;3458;53.678;14.080;2023-07-30T05:05:40;18.30;99.90
6841;DHT22;3458;53.678;14.080;2023-07-30T05:08:05;18.30;99.90
6841;DHT22;3458;53.678;14.080;2023-07-30T05:10:30;18.30;99.90
6841;DHT22;3458;53.678;14.080;2023-07-30T05:12:56;18.30;99.90
6841;DHT22;3458;53.678;14.080;2023-07-30T05:15:21;18.20;99.90
6841;DHT22;3458;53.678;14.080;2023-07-30T05:17:47;18.30;99.90
6841;DHT22;3458;53.678;14.080;2023-07-30T05:20:12;18.20;99.90
6841;DHT22;3458;53.678;14.080;2023-07-30T05:22:38;18.20;99.90
6841;DHT22;3458;53.678;14.080;2023-07-30T05:25:04;18.20;99.90
6841;DHT22;3458;53.678;14.080;2023-07-30T05:27:29;18.20;99.90
6841;DHT22;3458;53.678;14.080;2023-07-30T05:29:56;18.20;99.90
6841;DHT22;3458;53.678;14.080;2023-07-30T05:32:22;18.20;99.90
6841;DHT22;3458;53.678;14.080;2023-07-30T05:34:47;18.20;99.90
6841;DHT22;3458;53.678;14.080;2023-07-30T05:37:13;18.20;99.90
6841;DHT22;3458;53.678;14.080;2023-07-30T05:39:38;18.30;99.90
6841;DHT22;3458;53.678;14.080;2023-07-30T05:42:04;18.30;99.90
6841;DHT22;3458;53.678;14.080;2023-07-30T05:44:29;18.20;99.90
6841;DHT22;3458;53.678;14.080;2023-07-30T05:46:55;18.20;99.90
6841;DHT22;3458;53.678;14.080;2023-07-30T05:49:20;18.20;99.90
6841;DHT22;3458;53.678;14.080;2023-07-30T05:51:46;18.20;99.90
6841;DHT22;3458;53.678;14.080;2023-07-30T05:54:12;18.20;99.90
6841;DHT22;3458;53.678;14.080;2023-07-30T05:56:38;18.20;99.90
6841;DHT22;3458;53.678;14.080;2023-07-30T05:59:03;18.20;99.90
6841;DHT22;3458;53.678;14.080;2023-07-30T06:01:29;18.20;99.90
6841;DHT22;3458;53.678;14.080;2023-07-30T06:03:54;18.30;99.90
6841;DHT22;3458;53.678;14.080;2023-07-30T06:06:20;18.30;99.90
6841;DHT22;3458;53.678;14.080;2023-07-30T06:08:52;18.40;99.90
6841;DHT22;3458;53.678;14.080;2023-07-30T06:11:18;18.40;99.90
6841;DHT22;3458;53.678;14.080;2023-07-30T06:13:43;18.50;99.90
6841;DHT22;3458;53.678;14.080;2023-07-30T06:16:10;18.50;99.90
6841;DHT22;3458;53.678;14.080;2023-07-30T06:18:35;18.50;99.90
6841;DHT22;3458;53.678;14.080;2023-07-30T06:21:01;18.50;99.90
6841;DHT22;3458;53.678;14.080;2023-07-30T06:23:26;18.50;99.90
6841;DHT22;3458;53.678;14.080;2023-07-30T06:25:52;18.60;99.90
6841;DHT22;3458;53.678;14.080;2023-07-30T06:28:17;18.70;99.90
6841;DHT22;3458;53.678;14.080;2023-07-30T06:30:43;18.70;99.90
6841;DHT22;3458;53.678;14.080;2023-07-30T06:33:09;18.80;99.90
6841;DHT22;3458;53.678;14.080;2023-07-30T06:35:35;18.80;99.90
6841;DHT22;3458;53.678;14.080;2023-07-30T06:38:00;18.80;99.90
6841;DHT22;3458;53.678;14.080;2023-07-30T06:40:26;18.90;99.90
6841;DHT22;3458;53.678;14.080;2023-07-30T06:42:51;18.90;99.90
6841;DHT22;3458;53.678;14.080;2023-07-30T06:45:17;19.00;99.90
6841;DHT22;3458;53.678;14.080;2023-07-30T06:47:42;19.00;99.90
6841;DHT22;3458;53.678;14.080;2023-07-30T06:50:08;19.00;99.90
6841;DHT22;3458;53.678;14.080;2023-07-30T06:52:34;19.10;99.90
6841;DHT22;3458;53.678;14.080;2023-07-30T06:55:00;19.10;99.90
6841;DHT22;3458;53.678;14.080;2023-07-30T06:57:25;19.10;99.90
6841;DHT22;3458;53.678;14.080;2023-07-30T06:59:51;19.10;99.90
6841;DHT22;3458;53.678;14.080;2023-07-30T07:02:16;19.20;99.90
6841;DHT22;3458;53.678;14.080;2023-07-30T07:04:42;19.20;99.90
6841;DHT22;3458;53.678;14.080;2023-07-30T07:07:07;19.30;99.90
6841;DHT22;3458;53.678;14.080;2023-07-30T07:09:33;19.30;99.90
6841;DHT22;3458;53.678;14.080;2023-07-30T07:11:59;19.30;99.90
6841;DHT22;3458;53.678;14.080;2023-07-30T07:14:25;19.30;99.90
6841;DHT22;3458;53.678;14.080;2023-07-30T07:16:51;19.40;99.90
6841;DHT22;3458;53.678;14.080;2023-07-30T07:19:17;19.40;99.90
6841;DHT22;3458;53.678;14.080;2023-07-30T07:21:42;19.40;99.90
6841;DHT22;3458;53.678;14.080;2023-07-30T07:24:08;19.40;99.90
6841;DHT22;3458;53.678;14.080;2023-07-30T07:26:33;19.50;99.90
6841;DHT22;3458;53.678;14.080;2023-07-30T07:28:59;19.50;99.90
6841;DHT22;3458;53.678;14.080;2023-07-30T07:31:24;19.60;99.90
6841;DHT22;3458;53.678;14.080;2023-07-30T07:33:50;19.60;99.90
6841;DHT22;3458;53.678;14.080;2023-07-30T07:36:16;19.60;99.90
6841;DHT22;3458;53.678;14.080;2023-07-30T07:38:42;19.70;99.90
6841;DHT22;3458;53.678;14.080;2023-07-30T07:41:13;19.70;99.90
6841;DHT22;3458;53.678;14.080;2023-07-30T07:43:38;19.70;99.90
6841;DHT22;3458;53.678;14.080;2023-07-30T07:46:04;19.80;99.90
6841;DHT22;3458;53.678;14.080;2023-07-30T07:48:35;19.70;99.90
6841;DHT22;3458;53.678;14.080;2023-07-30T07:51:00;19.80;99.90
6841;DHT22;3458;53.678;14.080;2023-07-30T07:53:26;19.90;99.90
6841;DHT22;3458;53.678;14.080;2023-07-30T07:55:51;20.00;99.90
6841;DHT22;3458;53.678;14.080;2023-07-30T07:58:17;20.10;99.90
6841;DHT22;3458;53.678;14.080;2023-07-30T08:00:42;20.10;99.90
6841;DHT22;3458;53.678;14.080;2023-07-30T08:03:08;20.10;99.90
6841;DHT22;3458;53.678;14.080;2023-07-30T08:05:33;20.20;99.90
6841;DHT22;3458;53.678;14.080;2023-07-30T08:07:59;20.20;99.90
6841;DHT22;3458;53.678;14.080;2023-07-30T08:10:24;20.20;99.90
6841;DHT22;3458;53.678;14.080;2023-07-30T08:12:50;20.40;99.90
6841;DHT22;3458;53.678;14.080;2023-07-30T08:15:15;20.50;99.90
6841;DHT22;3458;53.678;14.080;2023-07-30T08:17:41;20.50;99.90
6841;DHT22;3458;53.678;14.080;2023-07-30T08:20:06;20.60;99.90
6841;DHT22;3458;53.678;14.080;2023-07-30T08:22:32;20.50;99.90
6841;DHT22;3458;53.678;14.080;2023-07-30T08:24:58;20.50;99.90
6841;DHT22;3458;53.678;14.080;2023-07-30T08:27:23;20.50;99.90
6841;DHT22;3458;53.678;14.080;2023-07-30T08:29:49;20.60;99.90
6841;DHT22;3458;53.678;14.080;2023-07-30T08:32:14;20.80;99.90
6841;DHT22;3458;53.678;14.080;2023-07-30T08:34:40;20.90;99.90
6841;DHT22;3458;53.678;14.080;2023-07-30T08:37:05;21.00;99.90
6841;DHT22;3458;53.678;14.080;2023-07-30T08:39:31;21.00;99.90
6841;DHT22;3458;53.678;14.080;2023-07-30T08:41:56;20.90;99.90
6841;DHT22;3458;53.678;14.080;2023-07-30T08:44:23;21.00;99.90
6841;DHT22;3458;53.678;14.080;2023-07-30T08:46:49;21.00;99.90
6841;DHT22;3458;53.678;14.080;2023-07-30T08:49:14;21.10;99.90
6841;DHT22;3458;53.678;14.080;2023-07-30T08:51:40;21.20;99.90
6841;DHT22;3458;53.678;14.080;2023-07-30T08:54:09;21.30;99.90
6841;DHT22;3458;53.678;14.080;2023-07-30T08:56:35;21.40;99.90
6841;DHT22;3458;53.678;14.080;2023-07-30T08:59:02;21.50;99.90
6841;DHT22;3458;53.678;14.080;2023-07-30T09:01:30;21.60;99.90
6841;DHT22;3458;53.678;14.080;2023-07-30T09:03:59;21.60;99.90
6841;DHT22;3458;53.678;14.080;2023-07-30T09:06:26;21.60;99.90
6841;DHT22;3458;53.678;14.080;2023-07-30T09:08:51;21.60;99.90
6841;DHT22;3458;53.678;14.080;2023-07-30T09:11:17;21.40;99.90
6841;DHT22;3458;53.678;14.080;2023-07-30T09:13:43;21.30;99.90
6841;DHT22;3458;53.678;14.080;2023-07-30T09:16:13;21.30;99.90
6841;DHT22;3458;53.678;14.080;2023-07-30T09:18:43;21.20;99.90
6841;DHT22;3458;53.678;14.080;2023-07-30T09:21:11;21.20;99.90
6841;DHT22;3458;53.678;14.080;2023-07-30T09:23:45;21.20;99.90
6841;DHT22;3458;53.678;14.080;2023-07-30T09:26:11;21.10;99.90
6841;DHT22;3458;53.678;14.080;2023-07-30T09:28:37;21.20;99.90
6841;DHT22;3458;53.678;14.080;2023-07-30T09:31:07;21.40;99.90
6841;DHT22;3458;53.678;14.080;2023-07-30T09:33:33;21.50;99.90
6841;DHT22;3458;53.678;14.080;2023-07-30T09:36:02;21.50;99.90
6841;DHT22;3458;53.678;14.080;2023-07-30T09:38:28;21.60;99.90
6841;DHT22;3458;53.678;14.080;2023-07-30T09:41:02;21.50;99.90
6841;DHT22;3458;53.678;14.080;2023-07-30T09:43:35;21.50;99.90
6841;DHT22;3458;53.678;14.080;2023-07-30T09:46:06;21.50;99.90
6841;DHT22;3458;53.678;14.080;2023-07-30T09:48:32;21.40;99.90
6841;DHT22;3458;53.678;14.080;2023-07-30T09:51:00;21.40;99.90
6841;DHT22;3458;53.678;14.080;2023-07-30T09:53:28;21.40;99.90
6841;DHT22;3458;53.678;14.080;2023-07-30T09:55:54;21.60;99.90
6841;DHT22;3458;53.678;14.080;2023-07-30T09:58:20;21.70;99.90
6841;DHT22;3458;53.678;14.080;2023-07-30T10:00:47;21.80;99.90
6841;DHT22;3458;53.678;14.080;2023-07-30T10:03:15;21.80;99.90
6841;DHT22;3458;53.678;14.080;2023-07-30T10:05:43;21.90;99.90
6841;DHT22;3458;53.678;14.080;2023-07-30T10:08:12;21.80;99.90
6841;DHT22;3458;53.678;14.080;2023-07-30T10:10:39;21.80;99.90
6841;DHT22;3458;53.678;14.080;2023-07-30T10:13:07;21.90;99.90
6841;DHT22;3458;53.678;14.080;2023-07-30T10:15:38;22.10;99.90
6841;DHT22;3458;53.678;14.080;2023-07-30T10:18:03;22.20;99.90
6841;DHT22;3458;53.678;14.080;2023-07-30T10:20:30;22.40;99.90
6841;DHT22;3458;53.678;14.080;2023-07-30T10:22:58;22.50;99.90
6841;DHT22;3458;53.678;14.080;2023-07-30T10:25:29;22.60;99.90
6841;DHT22;3458;53.678;14.080;2023-07-30T10:27:55;22.70;99.90
6841;DHT22;3458;53.678;14.080;2023-07-30T10:30:21;22.80;99.90
6841;DHT22;3458;53.678;14.080;2023-07-30T10:35:40;23.00;99.90
6841;DHT22;3458;53.678;14.080;2023-07-30T10:38:21;23.10;99.90
6841;DHT22;3458;53.678;14.080;2023-07-30T10:43:56;23.30;99.90
6841;DHT22;3458;53.678;14.080;2023-07-30T10:46:24;23.40;99.90
6841;DHT22;3458;53.678;14.080;2023-07-30T10:48:51;23.40;99.90
6841;DHT22;3458;53.678;14.080;2023-07-30T10:51:18;23.40;99.90
6841;DHT22;3458;53.678;14.080;2023-07-30T10:53:48;23.40;99.90
6841;DHT22;3458;53.678;14.080;2023-07-30T10:56:21;23.50;99.90
6841;DHT22;3458;53.678;14.080;2023-07-30T10:58:51;23.60;99.90
6841;DHT22;3458;53.678;14.080;2023-07-30T11:01:16;23.80;99.90
6841;DHT22;3458;53.678;14.080;2023-07-30T11:03:42;23.80;99.60
6841;DHT22;3458;53.678;14.080;2023-07-30T11:06:07;23.90;98.80
6841;DHT22;3458;53.678;14.080;2023-07-30T11:08:41;24.10;99.90
6841;DHT22;3458;53.678;14.080;2023-07-30T11:11:09;24.20;96.10
6841;DHT22;3458;53.678;14.080;2023-07-30T11:13:43;24.30;95.40
6841;DHT22;3458;53.678;14.080;2023-07-30T11:16:09;24.40;96.50
6841;DHT22;3458;53.678;14.080;2023-07-30T11:18:36;24.50;95.20
6841;DHT22;3458;53.678;14.080;2023-07-30T11:21:06;24.50;93.10
6841;DHT22;3458;53.678;14.080;2023-07-30T11:23:32;24.60;93.40
6841;DHT22;3458;53.678;14.080;2023-07-30T11:26:03;24.50;93.00
6841;DHT22;3458;53.678;14.080;2023-07-30T11:28:37;24.50;91.90
6841;DHT22;3458;53.678;14.080;2023-07-30T11:31:08;24.50;91.50
6841;DHT22;3458;53.678;14.080;2023-07-30T11:33:36;24.60;90.90
6841;DHT22;3458;53.678;14.080;2023-07-30T11:36:03;24.70;91.20
6841;DHT22;3458;53.678;14.080;2023-07-30T11:38:29;24.80;89.00
6841;DHT22;3458;53.678;14.080;2023-07-30T11:40:55;24.80;91.10
6841;DHT22;3458;53.678;14.080;2023-07-30T11:43:22;24.90;90.40
6841;DHT22;3458;53.678;14.080;2023-07-30T11:45:49;25.00;84.90
6841;DHT22;3458;53.678;14.080;2023-07-30T11:48:15;25.20;80.20
6841;DHT22;3458;53.678;14.080;2023-07-30T11:50:47;25.30;79.10
6841;DHT22;3458;53.678;14.080;2023-07-30T11:53:13;25.40;79.20
6841;DHT22;3458;53.678;14.080;2023-07-30T11:55:40;25.40;77.60
6841;DHT22;3458;53.678;14.080;2023-07-30T11:58:07;25.40;76.90
6841;DHT22;3458;53.678;14.080;2023-07-30T12:00:33;25.50;74.30
6841;DHT22;3458;53.678;14.080;2023-07-30T12:03:06;25.30;75.00
6841;DHT22;3458;53.678;14.080;2023-07-30T12:05:37;25.20;73.10
6841;DHT22;3458;53.678;14.080;2023-07-30T12:08:05;25.20;74.10
6841;DHT22;3458;53.678;14.080;2023-07-30T12:10:46;25.40;74.60
6841;DHT22;3458;53.678;14.080;2023-07-30T12:13:16;25.50;73.70
6841;DHT22;3458;53.678;14.080;2023-07-30T12:15:44;25.60;73.50
6841;DHT22;3458;53.678;14.080;2023-07-30T12:18:15;25.80;74.00
6841;DHT22;3458;53.678;14.080;2023-07-30T12:20:41;26.10;72.30
6841;DHT22;3458;53.678;14.080;2023-07-30T12:23:06;26.40;70.70
6841;DHT22;3458;53.678;14.080;2023-07-30T12:25:32;26.60;68.00
6841;DHT22;3458;53.678;14.080;2023-07-30T12:27:57;26.70;66.90
6841;DHT22;3458;53.678;14.080;2023-07-30T12:30:23;26.90;66.40
6841;DHT22;3458;53.678;14.080;2023-07-30T12:32:48;27.00;63.70
6841;DHT22;3458;53.678;14.080;2023-07-30T12:35:14;27.10;63.50
6841;DHT22;3458;53.678;14.080;2023-07-30T12:37:39;27.30;61.50
6841;DHT22;3458;53.678;14.080;2023-07-30T12:40:06;27.20;59.30
6841;DHT22;3458;53.678;14.080;2023-07-30T12:42:31;26.90;59.70
6841;DHT22;3458;53.678;14.080;2023-07-30T12:44:57;26.80;60.30
6841;DHT22;3458;53.678;14.080;2023-07-30T12:47:23;26.80;62.30
6841;DHT22;3458;53.678;14.080;2023-07-30T12:49:49;26.90;60.70
6841;DHT22;3458;53.678;14.080;2023-07-30T12:52:14;27.00;58.90
6841;DHT22;3458;53.678;14.080;2023-07-30T12:54:39;27.20;58.00
6841;DHT22;3458;53.678;14.080;2023-07-30T12:57:06;27.20;58.30
6841;DHT22;3458;53.678;14.080;2023-07-30T12:59:31;27.20;58.80
6841;DHT22;3458;53.678;14.080;2023-07-30T13:01:57;27.20;58.80
6841;DHT22;3458;53.678;14.080;2023-07-30T13:04:24;27.40;57.80
6841;DHT22;3458;53.678;14.080;2023-07-30T13:06:52;27.50;56.60
6841;DHT22;3458;53.678;14.080;2023-07-30T13:09:17;27.80;56.70
6841;DHT22;3458;53.678;14.080;2023-07-30T13:11:43;28.00;55.30
6841;DHT22;3458;53.678;14.080;2023-07-30T13:14:08;28.20;54.80
6841;DHT22;3458;53.678;14.080;2023-07-30T13:16:34;28.40;55.00
6841;DHT22;3458;53.678;14.080;2023-07-30T13:18:59;28.60;54.10
6841;DHT22;3458;53.678;14.080;2023-07-30T13:21:25;28.80;55.80
6841;DHT22;3458;53.678;14.080;2023-07-30T13:23:50;29.00;52.20
6841;DHT22;3458;53.678;14.080;2023-07-30T13:26:16;29.10;52.20
6841;DHT22;3458;53.678;14.080;2023-07-30T13:28:42;29.20;51.10
6841;DHT22;3458;53.678;14.080;2023-07-30T13:31:07;29.20;48.00
6841;DHT22;3458;53.678;14.080;2023-07-30T13:33:33;29.00;47.00
6841;DHT22;3458;53.678;14.080;2023-07-30T13:35:58;28.80;47.20
6841;DHT22;3458;53.678;14.080;2023-07-30T13:38:24;28.50;48.30
6841;DHT22;3458;53.678;14.080;2023-07-30T13:40:52;28.30;49.40
6841;DHT22;3458;53.678;14.080;2023-07-30T13:43:17;28.00;49.70
6841;DHT22;3458;53.678;14.080;2023-07-30T13:45:43;27.80;50.40
6841;DHT22;3458;53.678;14.080;2023-07-30T13:48:08;27.60;51.70
6841;DHT22;3458;53.678;14.080;2023-07-30T13:50:35;27.60;52.70
6841;DHT22;3458;53.678;14.080;2023-07-30T13:53:00;27.50;52.60
6841;DHT22;3458;53.678;14.080;2023-07-30T13:55:26;27.30;52.70
6841;DHT22;3458;53.678;14.080;2023-07-30T13:57:51;27.20;52.40
6841;DHT22;3458;53.678;14.080;2023-07-30T14:00:17;27.10;51.70
6841;DHT22;3458;53.678;14.080;2023-07-30T14:02:43;27.10;51.50
6841;DHT22;3458;53.678;14.080;2023-07-30T14:05:11;27.10;51.10
6841;DHT22;3458;53.678;14.080;2023-07-30T14:07:36;27.10;51.20
6841;DHT22;3458;53.678;14.080;2023-07-30T14:10:02;27.10;52.20
6841;DHT22;3458;53.678;14.080;2023-07-30T14:12:28;27.20;52.70
6841;DHT22;3458;53.678;14.080;2023-07-30T14:14:53;27.40;51.70
6841;DHT22;3458;53.678;14.080;2023-07-30T14:17:19;27.40;51.30
6841;DHT22;3458;53.678;14.080;2023-07-30T14:19:44;27.20;51.30
6841;DHT22;3458;53.678;14.080;2023-07-30T14:22:10;26.70;51.30
6841;DHT22;3458;53.678;14.080;2023-07-30T14:24:35;26.40;52.50
6841;DHT22;3458;53.678;14.080;2023-07-30T14:27:03;26.10;53.40
6841;DHT22;3458;53.678;14.080;2023-07-30T14:29:28;25.90;53.60
6841;DHT22;3458;53.678;14.080;2023-07-30T14:31:54;25.80;53.50
6841;DHT22;3458;53.678;14.080;2023-07-30T14:34:19;25.90;51.40
6841;DHT22;3458;53.678;14.080;2023-07-30T14:36:45;25.90;51.20
6841;DHT22;3458;53.678;14.080;2023-07-30T14:39:10;25.80;51.50
6841;DHT22;3458;53.678;14.080;2023-07-30T14:41:37;25.70;50.40
6841;DHT22;3458;53.678;14.080;2023-07-30T14:44:02;25.70;50.30
6841;DHT22;3458;53.678;14.080;2023-07-30T14:46:28;25.60;50.80
6841;DHT22;3458;53.678;14.080;2023-07-30T14:48:53;25.50;51.10
6841;DHT22;3458;53.678;14.080;2023-07-30T14:51:18;25.40;52.20
6841;DHT22;3458;53.678;14.080;2023-07-30T14:53:44;25.20;53.00
6841;DHT22;3458;53.678;14.080;2023-07-30T14:56:09;25.10;53.30
6841;DHT22;3458;53.678;14.080;2023-07-30T14:58:35;24.90;54.10
6841;DHT22;3458;53.678;14.080;2023-07-30T15:01:01;24.80;54.70
6841;DHT22;3458;53.678;14.080;2023-07-30T15:03:26;24.80;54.70
6841;DHT22;3458;53.678;14.080;2023-07-30T15:05:52;24.70;55.40
6841;DHT22;3458;53.678;14.080;2023-07-30T15:08:18;24.80;55.60
6841;DHT22;3458;53.678;14.080;2023-07-30T15:10:44;24.90;55.80
6841;DHT22;3458;53.678;14.080;2023-07-30T15:13:09;24.90;55.80
6841;DHT22;3458;53.678;14.080;2023-07-30T15:15:35;24.90;55.50
6841;DHT22;3458;53.678;14.080;2023-07-30T15:18:00;24.90;55.90
6841;DHT22;3458;53.678;14.080;2023-07-30T15:20:26;24.90;56.00
6841;DHT22;3458;53.678;14.080;2023-07-30T15:22:53;25.00;56.10
6841;DHT22;3458;53.678;14.080;2023-07-30T15:25:19;25.60;56.60
6841;DHT22;3458;53.678;14.080;2023-07-30T15:27:44;26.50;54.60
6841;DHT22;3458;53.678;14.080;2023-07-30T15:30:10;27.70;53.90
6841;DHT22;3458;53.678;14.080;2023-07-30T15:32:42;29.30;49.80
6841;DHT22;3458;53.678;14.080;2023-07-30T15:35:08;30.60;47.20
6841;DHT22;3458;53.678;14.080;2023-07-30T15:37:33;31.60;45.30
6841;DHT22;3458;53.678;14.080;2023-07-30T15:39:58;31.10;42.50
6841;DHT22;3458;53.678;14.080;2023-07-30T15:42:24;30.30;43.80
6841;DHT22;3458;53.678;14.080;2023-07-30T15:44:49;29.60;44.40